sensor_id;sensor_type;location;lat;lon;timestamp;P1;durP1;ratioP1;P2;durP2;ratioP2
72621;SDS011;60665;53.506;9.582;2022-09-02T00:02:12;2.95;;;1.00;;
72621;SDS011;60665;53.506;9.582;2022-09-02T00:04:40;2.88;;;0.90;;
72621;SDS011;60665;53.506;9.582;2022-09-02T00:07:07;1.83;;;0.75;;
72621;SDS011;60665;53.506;9.582;2022-09-02T00:09:32;3.03;;;0.90;;
72621;SDS011;60665;53.506;9.582;2022-09-02T00:11:57;3.47;;;1.00;;
72621;SDS011;60665;53.506;9.582;2022-09-02T00:14:25;3.97;;;1.17;;
72621;SDS011;60665;53.506;9.582;2022-09-02T00:16:53;2.80;;;0.80;;
72621;SDS011;60665;53.506;9.582;2022-09-02T00:19:20;2.03;;;0.93;;
72621;SDS011;60665;53.506;9.582;2022-09-02T00:21:47;3.17;;;1.00;;
72621;SDS011;60665;53.506;9.582;2022-09-02T00:24:13;3.25;;;1.00;;
72621;SDS011;60665;53.506;9.582;2022-09-02T00:26:38;3.60;;;1.20;;
72621;SDS011;60665;53.506;9.582;2022-09-02T00:29:04;4.80;;;1.10;;
72621;SDS011;60665;53.506;9.582;2022-09-02T00:31:29;2.63;;;1.10;;
72621;SDS011;60665;53.506;9.582;2022-09-02T00:33:57;2.47;;;0.75;;
72621;SDS011;60665;53.506;9.582;2022-09-02T00:36:22;2.00;;;0.80;;
72621;SDS011;60665;53.506;9.582;2022-09-02T00:38:48;2.17;;;0.75;;
72621;SDS011;60665;53.506;9.582;2022-09-02T00:41:13;2.67;;;0.70;;
72621;SDS011;60665;53.506;9.582;2022-09-02T00:43:59;1.90;;;0.80;;
72621;SDS011;60665;53.506;9.582;2022-09-02T00:46:30;2.80;;;1.00;;
72621;SDS011;60665;53.506;9.582;2022-09-02T00:49:11;2.63;;;0.98;;
72621;SDS011;60665;53.506;9.582;2022-09-02T00:54:26;3.00;;;0.90;;
72621;SDS011;60665;53.506;9.582;2022-09-02T00:56:54;2.35;;;0.90;;
72621;SDS011;60665;53.506;9.582;2022-09-02T00:59:25;1.98;;;0.80;;
72621;SDS011;60665;53.506;9.582;2022-09-02T01:01:54;2.03;;;0.80;;
72621;SDS011;60665;53.506;9.582;2022-09-02T01:04:20;2.38;;;0.98;;
72621;SDS011;60665;53.506;9.582;2022-09-02T01:06:45;3.70;;;0.90;;
72621;SDS011;60665;53.506;9.582;2022-09-02T01:09:13;2.47;;;0.93;;
72621;SDS011;60665;53.506;9.582;2022-09-02T01:11:41;2.08;;;0.90;;
72621;SDS011;60665;53.506;9.582;2022-09-02T01:14:09;4.07;;;1.17;;
72621;SDS011;60665;53.506;9.582;2022-09-02T01:16:48;2.30;;;0.88;;
72621;SDS011;60665;53.506;9.582;2022-09-02T01:19:19;3.33;;;1.10;;
72621;SDS011;60665;53.506;9.582;2022-09-02T01:21:48;2.75;;;0.93;;
72621;SDS011;60665;53.506;9.582;2022-09-02T01:24:14;2.38;;;0.90;;
72621;SDS011;60665;53.506;9.582;2022-09-02T01:26:40;2.40;;;0.60;;
72621;SDS011;60665;53.506;9.582;2022-09-02T01:29:06;3.22;;;0.90;;
72621;SDS011;60665;53.506;9.582;2022-09-02T01:31:31;2.30;;;1.00;;
72621;SDS011;60665;53.506;9.582;2022-09-02T01:33:57;2.92;;;1.10;;
72621;SDS011;60665;53.506;9.582;2022-09-02T01:36:23;5.32;;;1.13;;
72621;SDS011;60665;53.506;9.582;2022-09-02T01:38:49;2.90;;;1.00;;
72621;SDS011;60665;53.506;9.582;2022-09-02T01:41:14;2.08;;;0.90;;
72621;SDS011;60665;53.506;9.582;2022-09-02T01:43:40;2.10;;;0.80;;
72621;SDS011;60665;53.506;9.582;2022-09-02T01:46:05;3.67;;;1.00;;
72621;SDS011;60665;53.506;9.582;2022-09-02T01:48:31;3.03;;;1.00;;
72621;SDS011;60665;53.506;9.582;2022-09-02T01:50:58;2.78;;;0.95;;
72621;SDS011;60665;53.506;9.582;2022-09-02T01:53:24;2.65;;;0.85;;
72621;SDS011;60665;53.506;9.582;2022-09-02T01:55:49;2.28;;;0.90;;
72621;SDS011;60665;53.506;9.582;2022-09-02T01:58:15;2.80;;;1.00;;
72621;SDS011;60665;53.506;9.582;2022-09-02T02:00:40;2.40;;;0.90;;
72621;SDS011;60665;53.506;9.582;2022-09-02T02:03:06;4.05;;;1.00;;
72621;SDS011;60665;53.506;9.582;2022-09-02T02:05:31;2.15;;;1.00;;
72621;SDS011;60665;53.506;9.582;2022-09-02T02:07:57;2.13;;;0.90;;
72621;SDS011;60665;53.506;9.582;2022-09-02T02:10:23;2.45;;;1.10;;
72621;SDS011;60665;53.506;9.582;2022-09-02T02:12:49;1.85;;;0.80;;
72621;SDS011;60665;53.506;9.582;2022-09-02T02:15:16;2.45;;;0.90;;
72621;SDS011;60665;53.506;9.582;2022-09-02T02:17:43;2.47;;;0.90;;
72621;SDS011;60665;53.506;9.582;2022-09-02T02:20:09;2.42;;;1.00;;
72621;SDS011;60665;53.506;9.582;2022-09-02T02:22:35;4.65;;;1.10;;
72621;SDS011;60665;53.506;9.582;2022-09-02T02:25:02;1.48;;;0.75;;
72621;SDS011;60665;53.506;9.582;2022-09-02T02:27:29;1.98;;;0.85;;
72621;SDS011;60665;53.506;9.582;2022-09-02T02:29:54;4.30;;;1.30;;
72621;SDS011;60665;53.506;9.582;2022-09-02T02:32:19;4.60;;;1.20;;
72621;SDS011;60665;53.506;9.582;2022-09-02T02:34:45;2.83;;;1.00;;
72621;SDS011;60665;53.506;9.582;2022-09-02T02:37:11;2.92;;;1.00;;
72621;SDS011;60665;53.506;9.582;2022-09-02T02:39:37;4.40;;;1.23;;
72621;SDS011;60665;53.506;9.582;2022-09-02T02:42:04;3.08;;;1.10;;
72621;SDS011;60665;53.506;9.582;2022-09-02T02:44:29;3.20;;;0.80;;
72621;SDS011;60665;53.506;9.582;2022-09-02T02:46:55;3.17;;;1.08;;
72621;SDS011;60665;53.506;9.582;2022-09-02T02:49:20;3.08;;;1.00;;
72621;SDS011;60665;53.506;9.582;2022-09-02T02:51:47;3.60;;;1.10;;
72621;SDS011;60665;53.506;9.582;2022-09-02T02:54:13;2.15;;;1.00;;
72621;SDS011;60665;53.506;9.582;2022-09-02T02:56:38;2.70;;;1.05;;
72621;SDS011;60665;53.506;9.582;2022-09-02T02:59:04;3.22;;;1.20;;
72621;SDS011;60665;53.506;9.582;2022-09-02T03:01:29;4.65;;;1.30;;
72621;SDS011;60665;53.506;9.582;2022-09-02T03:03:55;2.50;;;1.10;;
72621;SDS011;60665;53.506;9.582;2022-09-02T03:06:21;2.28;;;1.00;;
72621;SDS011;60665;53.506;9.582;2022-09-02T03:08:46;2.33;;;1.00;;
72621;SDS011;60665;53.506;9.582;2022-09-02T03:11:13;2.95;;;1.20;;
72621;SDS011;60665;53.506;9.582;2022-09-02T03:13:38;2.60;;;1.00;;
72621;SDS011;60665;53.506;9.582;2022-09-02T03:16:04;2.20;;;1.13;;
72621;SDS011;60665;53.506;9.582;2022-09-02T03:18:30;3.13;;;1.20;;
72621;SDS011;60665;53.506;9.582;2022-09-02T03:20:56;2.72;;;1.02;;
72621;SDS011;60665;53.506;9.582;2022-09-02T03:23:22;3.47;;;0.88;;
72621;SDS011;60665;53.506;9.582;2022-09-02T03:25:47;3.35;;;1.00;;
72621;SDS011;60665;53.506;9.582;2022-09-02T03:28:12;2.03;;;1.00;;
72621;SDS011;60665;53.506;9.582;2022-09-02T03:30:38;2.10;;;1.00;;
72621;SDS011;60665;53.506;9.582;2022-09-02T03:33:04;6.05;;;1.20;;
72621;SDS011;60665;53.506;9.582;2022-09-02T03:35:30;2.25;;;1.02;;
72621;SDS011;60665;53.506;9.582;2022-09-02T03:37:56;2.78;;;1.05;;
72621;SDS011;60665;53.506;9.582;2022-09-02T03:40:23;2.70;;;0.93;;
72621;SDS011;60665;53.506;9.582;2022-09-02T03:42:50;3.17;;;1.20;;
72621;SDS011;60665;53.506;9.582;2022-09-02T03:45:16;4.03;;;1.30;;
72621;SDS011;60665;53.506;9.582;2022-09-02T03:47:42;2.60;;;1.30;;
72621;SDS011;60665;53.506;9.582;2022-09-02T03:50:15;2.72;;;1.10;;
72621;SDS011;60665;53.506;9.582;2022-09-02T03:52:41;5.07;;;1.40;;
72621;SDS011;60665;53.506;9.582;2022-09-02T03:55:07;3.40;;;1.27;;
72621;SDS011;60665;53.506;9.582;2022-09-02T03:57:34;2.55;;;1.00;;
72621;SDS011;60665;53.506;9.582;2022-09-02T04:00:00;2.60;;;1.02;;
72621;SDS011;60665;53.506;9.582;2022-09-02T04:02:26;2.88;;;1.23;;
72621;SDS011;60665;53.506;9.582;2022-09-02T04:04:51;3.03;;;1.30;;
72621;SDS011;60665;53.506;9.582;2022-09-02T04:07:17;4.05;;;1.23;;
72621;SDS011;60665;53.506;9.582;2022-09-02T04:09:42;3.72;;;1.40;;
72621;SDS011;60665;53.506;9.582;2022-09-02T04:12:07;2.95;;;1.23;;
72621;SDS011;60665;53.506;9.582;2022-09-02T04:14:33;3.55;;;1.50;;
72621;SDS011;60665;53.506;9.582;2022-09-02T04:16:58;3.85;;;1.70;;
72621;SDS011;60665;53.506;9.582;2022-09-02T04:19:23;3.53;;;1.20;;
72621;SDS011;60665;53.506;9.582;2022-09-02T04:21:49;2.53;;;1.17;;
72621;SDS011;60665;53.506;9.582;2022-09-02T04:24:14;4.32;;;1.52;;
72621;SDS011;60665;53.506;9.582;2022-09-02T04:26:39;3.88;;;1.40;;
72621;SDS011;60665;53.506;9.582;2022-09-02T04:29:05;3.92;;;1.50;;
72621;SDS011;60665;53.506;9.582;2022-09-02T04:31:32;4.30;;;1.30;;
72621;SDS011;60665;53.506;9.582;2022-09-02T04:33:57;3.33;;;1.10;;
72621;SDS011;60665;53.506;9.582;2022-09-02T04:36:24;5.20;;;1.30;;
72621;SDS011;60665;53.506;9.582;2022-09-02T04:38:50;3.13;;;1.63;;
72621;SDS011;60665;53.506;9.582;2022-09-02T04:41:18;3.85;;;1.30;;
72621;SDS011;60665;53.506;9.582;2022-09-02T04:43:46;3.47;;;1.20;;
72621;SDS011;60665;53.506;9.582;2022-09-02T04:46:13;5.78;;;1.20;;
72621;SDS011;60665;53.506;9.582;2022-09-02T04:48:39;2.55;;;1.10;;
72621;SDS011;60665;53.506;9.582;2022-09-02T04:51:06;2.42;;;1.05;;
72621;SDS011;60665;53.506;9.582;2022-09-02T04:53:33;3.75;;;1.08;;
72621;SDS011;60665;53.506;9.582;2022-09-02T04:55:59;3.30;;;1.20;;
72621;SDS011;60665;53.506;9.582;2022-09-02T04:58:25;3.40;;;1.30;;
72621;SDS011;60665;53.506;9.582;2022-09-02T05:00:51;2.65;;;1.17;;
72621;SDS011;60665;53.506;9.582;2022-09-02T05:03:16;3.00;;;1.20;;
72621;SDS011;60665;53.506;9.582;2022-09-02T05:05:43;3.72;;;1.30;;
72621;SDS011;60665;53.506;9.582;2022-09-02T05:08:09;3.67;;;1.50;;
72621;SDS011;60665;53.506;9.582;2022-09-02T05:10:37;3.95;;;1.60;;
72621;SDS011;60665;53.506;9.582;2022-09-02T05:13:03;3.33;;;1.50;;
72621;SDS011;60665;53.506;9.582;2022-09-02T05:15:29;6.18;;;1.80;;
72621;SDS011;60665;53.506;9.582;2022-09-02T05:17:55;3.30;;;1.50;;
72621;SDS011;60665;53.506;9.582;2022-09-02T05:20:21;2.92;;;1.30;;
72621;SDS011;60665;53.506;9.582;2022-09-02T05:22:48;6.55;;;1.70;;
72621;SDS011;60665;53.506;9.582;2022-09-02T05:25:14;3.05;;;1.40;;
72621;SDS011;60665;53.506;9.582;2022-09-02T05:27:40;5.28;;;1.55;;
72621;SDS011;60665;53.506;9.582;2022-09-02T05:30:05;3.47;;;1.60;;
72621;SDS011;60665;53.506;9.582;2022-09-02T05:32:31;4.45;;;1.40;;
72621;SDS011;60665;53.506;9.582;2022-09-02T05:34:57;3.83;;;1.30;;
72621;SDS011;60665;53.506;9.582;2022-09-02T05:37:22;4.88;;;1.50;;
72621;SDS011;60665;53.506;9.582;2022-09-02T05:39:51;4.80;;;1.60;;
72621;SDS011;60665;53.506;9.582;2022-09-02T05:42:17;5.05;;;1.77;;
72621;SDS011;60665;53.506;9.582;2022-09-02T05:44:44;3.78;;;1.40;;
72621;SDS011;60665;53.506;9.582;2022-09-02T05:47:12;4.18;;;1.70;;
72621;SDS011;60665;53.506;9.582;2022-09-02T05:49:38;2.88;;;1.48;;
72621;SDS011;60665;53.506;9.582;2022-09-02T05:52:03;6.18;;;1.50;;
72621;SDS011;60665;53.506;9.582;2022-09-02T05:54:31;4.43;;;1.63;;
72621;SDS011;60665;53.506;9.582;2022-09-02T05:56:58;6.45;;;1.77;;
72621;SDS011;60665;53.506;9.582;2022-09-02T05:59:27;3.25;;;1.55;;
72621;SDS011;60665;53.506;9.582;2022-09-02T06:01:54;5.18;;;1.90;;
72621;SDS011;60665;53.506;9.582;2022-09-02T06:04:20;4.55;;;1.63;;
72621;SDS011;60665;53.506;9.582;2022-09-02T06:06:46;3.40;;;1.52;;
72621;SDS011;60665;53.506;9.582;2022-09-02T06:09:13;5.57;;;1.70;;
72621;SDS011;60665;53.506;9.582;2022-09-02T06:11:42;5.13;;;1.83;;
72621;SDS011;60665;53.506;9.582;2022-09-02T06:14:09;4.72;;;1.75;;
72621;SDS011;60665;53.506;9.582;2022-09-02T06:16:36;5.30;;;1.48;;
72621;SDS011;60665;53.506;9.582;2022-09-02T06:19:02;3.38;;;1.50;;
72621;SDS011;60665;53.506;9.582;2022-09-02T06:21:28;3.60;;;1.60;;
72621;SDS011;60665;53.506;9.582;2022-09-02T06:23:54;3.50;;;1.67;;
72621;SDS011;60665;53.506;9.582;2022-09-02T06:26:19;4.82;;;1.95;;
72621;SDS011;60665;53.506;9.582;2022-09-02T06:28:44;3.47;;;1.60;;
72621;SDS011;60665;53.506;9.582;2022-09-02T06:31:11;5.45;;;1.58;;
72621;SDS011;60665;53.506;9.582;2022-09-02T06:33:39;4.90;;;1.50;;
72621;SDS011;60665;53.506;9.582;2022-09-02T06:36:08;4.30;;;1.40;;
72621;SDS011;60665;53.506;9.582;2022-09-02T06:38:36;3.78;;;1.38;;
72621;SDS011;60665;53.506;9.582;2022-09-02T06:41:06;3.53;;;1.42;;
72621;SDS011;60665;53.506;9.582;2022-09-02T06:43:31;7.45;;;1.70;;
72621;SDS011;60665;53.506;9.582;2022-09-02T06:45:57;4.93;;;1.67;;
72621;SDS011;60665;53.506;9.582;2022-09-02T06:48:22;2.67;;;1.20;;
72621;SDS011;60665;53.506;9.582;2022-09-02T06:50:48;3.78;;;1.50;;
72621;SDS011;60665;53.506;9.582;2022-09-02T06:53:13;4.35;;;1.30;;
72621;SDS011;60665;53.506;9.582;2022-09-02T06:55:41;4.28;;;1.55;;
72621;SDS011;60665;53.506;9.582;2022-09-02T06:58:08;4.25;;;1.65;;
72621;SDS011;60665;53.506;9.582;2022-09-02T07:00:34;4.85;;;1.33;;
72621;SDS011;60665;53.506;9.582;2022-09-02T07:03:01;4.90;;;1.65;;
72621;SDS011;60665;53.506;9.582;2022-09-02T07:05:45;5.50;;;1.10;;
72621;SDS011;60665;53.506;9.582;2022-09-02T07:08:10;5.75;;;1.20;;
72621;SDS011;60665;53.506;9.582;2022-09-02T07:10:37;3.10;;;1.40;;
72621;SDS011;60665;53.506;9.582;2022-09-02T07:13:03;6.72;;;1.35;;
72621;SDS011;60665;53.506;9.582;2022-09-02T07:15:29;3.63;;;1.27;;
72621;SDS011;60665;53.506;9.582;2022-09-02T07:17:55;4.22;;;1.20;;
72621;SDS011;60665;53.506;9.582;2022-09-02T07:20:20;3.80;;;1.40;;
72621;SDS011;60665;53.506;9.582;2022-09-02T07:22:45;4.70;;;1.10;;
72621;SDS011;60665;53.506;9.582;2022-09-02T07:25:11;2.53;;;1.20;;
72621;SDS011;60665;53.506;9.582;2022-09-02T07:27:37;2.80;;;0.98;;
72621;SDS011;60665;53.506;9.582;2022-09-02T07:30:03;3.05;;;1.17;;
72621;SDS011;60665;53.506;9.582;2022-09-02T07:32:30;3.83;;;1.63;;
72621;SDS011;60665;53.506;9.582;2022-09-02T07:34:56;2.40;;;1.00;;
72621;SDS011;60665;53.506;9.582;2022-09-02T07:37:22;4.38;;;0.98;;
72621;SDS011;60665;53.506;9.582;2022-09-02T07:39:47;3.92;;;1.30;;
72621;SDS011;60665;53.506;9.582;2022-09-02T07:42:14;3.60;;;1.15;;
72621;SDS011;60665;53.506;9.582;2022-09-02T07:44:39;8.27;;;1.17;;
72621;SDS011;60665;53.506;9.582;2022-09-02T07:47:05;3.25;;;1.10;;
72621;SDS011;60665;53.506;9.582;2022-09-02T07:49:31;4.47;;;1.30;;
72621;SDS011;60665;53.506;9.582;2022-09-02T07:51:56;3.00;;;1.00;;
72621;SDS011;60665;53.506;9.582;2022-09-02T07:54:22;3.33;;;1.20;;
72621;SDS011;60665;53.506;9.582;2022-09-02T07:56:49;4.38;;;1.10;;
72621;SDS011;60665;53.506;9.582;2022-09-02T07:59:15;10.88;;;1.25;;
72621;SDS011;60665;53.506;9.582;2022-09-02T08:01:41;3.58;;;1.00;;
72621;SDS011;60665;53.506;9.582;2022-09-02T08:04:08;5.18;;;1.13;;
72621;SDS011;60665;53.506;9.582;2022-09-02T08:06:33;3.65;;;0.90;;
72621;SDS011;60665;53.506;9.582;2022-09-02T08:09:00;3.83;;;1.15;;
72621;SDS011;60665;53.506;9.582;2022-09-02T08:11:25;3.33;;;0.90;;
72621;SDS011;60665;53.506;9.582;2022-09-02T08:13:50;2.90;;;1.00;;
72621;SDS011;60665;53.506;9.582;2022-09-02T08:16:16;2.28;;;0.90;;
72621;SDS011;60665;53.506;9.582;2022-09-02T08:18:42;2.58;;;0.80;;
72621;SDS011;60665;53.506;9.582;2022-09-02T08:21:07;1.65;;;0.80;;
72621;SDS011;60665;53.506;9.582;2022-09-02T08:23:32;2.72;;;1.10;;
72621;SDS011;60665;53.506;9.582;2022-09-02T08:25:58;1.98;;;0.77;;
72621;SDS011;60665;53.506;9.582;2022-09-02T08:28:24;2.30;;;0.85;;
72621;SDS011;60665;53.506;9.582;2022-09-02T08:30:51;2.03;;;1.00;;
72621;SDS011;60665;53.506;9.582;2022-09-02T08:33:17;2.40;;;0.82;;
72621;SDS011;60665;53.506;9.582;2022-09-02T08:35:42;3.08;;;1.00;;
72621;SDS011;60665;53.506;9.582;2022-09-02T08:38:07;3.70;;;1.40;;
72621;SDS011;60665;53.506;9.582;2022-09-02T08:40:37;4.60;;;0.85;;
72621;SDS011;60665;53.506;9.582;2022-09-02T08:43:12;1.40;;;0.70;;
72621;SDS011;60665;53.506;9.582;2022-09-02T08:45:59;3.40;;;1.20;;
72621;SDS011;60665;53.506;9.582;2022-09-02T08:48:45;2.90;;;1.02;;
72621;SDS011;60665;53.506;9.582;2022-09-02T08:51:19;3.65;;;0.82;;
72621;SDS011;60665;53.506;9.582;2022-09-02T08:53:59;3.45;;;1.02;;
72621;SDS011;60665;53.506;9.582;2022-09-02T08:56:28;3.10;;;0.90;;
72621;SDS011;60665;53.506;9.582;2022-09-02T08:58:55;2.00;;;0.80;;
72621;SDS011;60665;53.506;9.582;2022-09-02T09:01:27;2.80;;;0.85;;
72621;SDS011;60665;53.506;9.582;2022-09-02T09:20:00;2.20;;;1.13;;
72621;SDS011;60665;53.506;9.582;2022-09-02T09:22:32;3.55;;;1.13;;
72621;SDS011;60665;53.506;9.582;2022-09-02T09:25:01;4.78;;;1.30;;
72621;SDS011;60665;53.506;9.582;2022-09-02T09:27:27;3.40;;;0.80;;
72621;SDS011;60665;53.506;9.582;2022-09-02T09:29:53;2.50;;;1.20;;
72621;SDS011;60665;53.506;9.582;2022-09-02T09:32:20;3.10;;;1.20;;
72621;SDS011;60665;53.506;9.582;2022-09-02T09:37:33;5.00;;;1.20;;
72621;SDS011;60665;53.506;9.582;2022-09-02T09:40:19;2.78;;;1.10;;
72621;SDS011;60665;53.506;9.582;2022-09-02T09:42:46;3.85;;;0.90;;
72621;SDS011;60665;53.506;9.582;2022-09-02T09:50:41;2.92;;;1.13;;
72621;SDS011;60665;53.506;9.582;2022-09-02T09:58:17;2.47;;;1.20;;
72621;SDS011;60665;53.506;9.582;2022-09-02T10:00:43;4.57;;;0.90;;
72621;SDS011;60665;53.506;9.582;2022-09-02T10:03:10;2.22;;;1.10;;
72621;SDS011;60665;53.506;9.582;2022-09-02T10:05:45;2.38;;;1.25;;
72621;SDS011;60665;53.506;9.582;2022-09-02T10:10:38;3.17;;;1.30;;
72621;SDS011;60665;53.506;9.582;2022-09-02T10:13:24;4.32;;;1.20;;
72621;SDS011;60665;53.506;9.582;2022-09-02T10:18:43;6.38;;;1.55;;
72621;SDS011;60665;53.506;9.582;2022-09-02T10:24:20;3.47;;;1.25;;
72621;SDS011;60665;53.506;9.582;2022-09-02T10:27:07;2.72;;;1.20;;
72621;SDS011;60665;53.506;9.582;2022-09-02T10:38:11;5.63;;;1.02;;
72621;SDS011;60665;53.506;9.582;2022-09-02T10:40:56;2.83;;;1.23;;
72621;SDS011;60665;53.506;9.582;2022-09-02T10:52:23;3.17;;;1.30;;
72621;SDS011;60665;53.506;9.582;2022-09-02T10:55:16;3.40;;;1.40;;
72621;SDS011;60665;53.506;9.582;2022-09-02T11:00:15;3.33;;;1.40;;
72621;SDS011;60665;53.506;9.582;2022-09-02T11:02:56;2.40;;;1.30;;
72621;SDS011;60665;53.506;9.582;2022-09-02T11:08:13;2.20;;;1.35;;
72621;SDS011;60665;53.506;9.582;2022-09-02T11:10:46;4.45;;;1.33;;
72621;SDS011;60665;53.506;9.582;2022-09-02T11:13:34;3.38;;;0.95;;
72621;SDS011;60665;53.506;9.582;2022-09-02T11:19:37;3.38;;;1.13;;
72621;SDS011;60665;53.506;9.582;2022-09-02T11:24:35;1.92;;;1.05;;
72621;SDS011;60665;53.506;9.582;2022-09-02T11:30:05;3.25;;;1.30;;
72621;SDS011;60665;53.506;9.582;2022-09-02T11:32:55;4.10;;;1.42;;
72621;SDS011;60665;53.506;9.582;2022-09-02T11:35:28;4.45;;;1.27;;
72621;SDS011;60665;53.506;9.582;2022-09-02T11:38:32;5.95;;;1.30;;
72621;SDS011;60665;53.506;9.582;2022-09-02T11:43:46;4.80;;;1.15;;
72621;SDS011;60665;53.506;9.582;2022-09-02T11:46:23;6.25;;;1.05;;
72621;SDS011;60665;53.506;9.582;2022-09-02T11:54:17;2.15;;;1.00;;
72621;SDS011;60665;53.506;9.582;2022-09-02T11:56:47;2.58;;;1.20;;
72621;SDS011;60665;53.506;9.582;2022-09-02T11:59:19;2.70;;;1.33;;
72621;SDS011;60665;53.506;9.582;2022-09-02T12:02:04;5.43;;;1.48;;
72621;SDS011;60665;53.506;9.582;2022-09-02T12:04:30;4.03;;;1.13;;
72621;SDS011;60665;53.506;9.582;2022-09-02T12:13:02;4.28;;;1.40;;
72621;SDS011;60665;53.506;9.582;2022-09-02T12:15:14;3.22;;;1.30;;
72621;SDS011;60665;53.506;9.582;2022-09-02T12:23:00;2.40;;;1.00;;
72621;SDS011;60665;53.506;9.582;2022-09-02T12:33:32;5.53;;;1.48;;
72621;SDS011;60665;53.506;9.582;2022-09-02T12:35:59;3.45;;;1.13;;
72621;SDS011;60665;53.506;9.582;2022-09-02T12:38:29;2.80;;;1.10;;
72621;SDS011;60665;53.506;9.582;2022-09-02T12:43:39;2.97;;;1.23;;
72621;SDS011;60665;53.506;9.582;2022-09-02T12:46:26;2.60;;;1.10;;
72621;SDS011;60665;53.506;9.582;2022-09-02T12:52:13;2.78;;;1.13;;
72621;SDS011;60665;53.506;9.582;2022-09-02T12:54:23;4.10;;;1.15;;
72621;SDS011;60665;53.506;9.582;2022-09-02T12:57:11;3.00;;;0.77;;
72621;SDS011;60665;53.506;9.582;2022-09-02T12:59:40;3.92;;;1.10;;
72621;SDS011;60665;53.506;9.582;2022-09-02T13:02:11;3.05;;;0.80;;
72621;SDS011;60665;53.506;9.582;2022-09-02T13:10:26;5.13;;;0.80;;
72621;SDS011;60665;53.506;9.582;2022-09-02T13:19:03;2.38;;;0.63;;
72621;SDS011;60665;53.506;9.582;2022-09-02T13:26:35;2.45;;;1.05;;
72621;SDS011;60665;53.506;9.582;2022-09-02T13:32:22;5.90;;;0.90;;
72621;SDS011;60665;53.506;9.582;2022-09-02T13:39:53;3.20;;;0.98;;
72621;SDS011;60665;53.506;9.582;2022-09-02T13:42:20;5.68;;;0.90;;
72621;SDS011;60665;53.506;9.582;2022-09-02T13:44:48;4.50;;;1.15;;
72621;SDS011;60665;53.506;9.582;2022-09-02T13:47:17;3.72;;;1.13;;
72621;SDS011;60665;53.506;9.582;2022-09-02T13:49:47;2.60;;;1.02;;
72621;SDS011;60665;53.506;9.582;2022-09-02T13:52:15;4.25;;;0.70;;
72621;SDS011;60665;53.506;9.582;2022-09-02T13:54:43;3.78;;;1.17;;
72621;SDS011;60665;53.506;9.582;2022-09-02T13:57:16;3.28;;;0.77;;
72621;SDS011;60665;53.506;9.582;2022-09-02T13:59:47;2.08;;;0.70;;
72621;SDS011;60665;53.506;9.582;2022-09-02T14:02:20;4.20;;;0.75;;
72621;SDS011;60665;53.506;9.582;2022-09-02T14:07:30;4.32;;;0.88;;
72621;SDS011;60665;53.506;9.582;2022-09-02T14:09:58;2.75;;;1.10;;
72621;SDS011;60665;53.506;9.582;2022-09-02T14:12:25;2.85;;;0.90;;
72621;SDS011;60665;53.506;9.582;2022-09-02T14:14:51;1.85;;;0.70;;
72621;SDS011;60665;53.506;9.582;2022-09-02T14:19:45;1.85;;;0.70;;
72621;SDS011;60665;53.506;9.582;2022-09-02T14:22:26;3.05;;;0.80;;
72621;SDS011;60665;53.506;9.582;2022-09-02T14:24:52;3.10;;;1.00;;
72621;SDS011;60665;53.506;9.582;2022-09-02T14:27:18;2.75;;;0.70;;
72621;SDS011;60665;53.506;9.582;2022-09-02T14:29:45;2.78;;;0.80;;
72621;SDS011;60665;53.506;9.582;2022-09-02T14:32:25;3.30;;;0.90;;
72621;SDS011;60665;53.506;9.582;2022-09-02T14:37:49;2.55;;;0.98;;
72621;SDS011;60665;53.506;9.582;2022-09-02T14:40:32;3.90;;;1.00;;
72621;SDS011;60665;53.506;9.582;2022-09-02T14:43:01;3.47;;;0.88;;
72621;SDS011;60665;53.506;9.582;2022-09-02T14:45:27;4.78;;;0.95;;
72621;SDS011;60665;53.506;9.582;2022-09-02T14:47:58;3.35;;;0.77;;
72621;SDS011;60665;53.506;9.582;2022-09-02T14:50:29;3.45;;;0.75;;
72621;SDS011;60665;53.506;9.582;2022-09-02T14:53:01;3.40;;;0.77;;
72621;SDS011;60665;53.506;9.582;2022-09-02T14:58:10;3.85;;;0.85;;
72621;SDS011;60665;53.506;9.582;2022-09-02T15:00:35;2.80;;;0.80;;
72621;SDS011;60665;53.506;9.582;2022-09-02T15:03:03;1.95;;;0.70;;
72621;SDS011;60665;53.506;9.582;2022-09-02T15:05:29;2.55;;;0.98;;
72621;SDS011;60665;53.506;9.582;2022-09-02T15:07:54;2.00;;;1.00;;
72621;SDS011;60665;53.506;9.582;2022-09-02T15:10:20;2.58;;;0.90;;
72621;SDS011;60665;53.506;9.582;2022-09-02T15:12:52;4.00;;;0.85;;
72621;SDS011;60665;53.506;9.582;2022-09-02T15:15:19;4.40;;;0.80;;
72621;SDS011;60665;53.506;9.582;2022-09-02T15:17:44;7.15;;;1.02;;
72621;SDS011;60665;53.506;9.582;2022-09-02T15:20:10;5.03;;;1.20;;
72621;SDS011;60665;53.506;9.582;2022-09-02T15:22:35;5.75;;;1.23;;
72621;SDS011;60665;53.506;9.582;2022-09-02T15:25:01;2.80;;;0.80;;
72621;SDS011;60665;53.506;9.582;2022-09-02T15:27:28;3.50;;;0.82;;
72621;SDS011;60665;53.506;9.582;2022-09-02T15:29:53;2.40;;;0.80;;
72621;SDS011;60665;53.506;9.582;2022-09-02T15:32:19;5.93;;;0.95;;
72621;SDS011;60665;53.506;9.582;2022-09-02T15:34:44;2.40;;;0.80;;
72621;SDS011;60665;53.506;9.582;2022-09-02T15:37:10;5.55;;;1.02;;
72621;SDS011;60665;53.506;9.582;2022-09-02T15:39:35;3.35;;;1.10;;
72621;SDS011;60665;53.506;9.582;2022-09-02T15:42:00;4.68;;;1.00;;
72621;SDS011;60665;53.506;9.582;2022-09-02T15:44:26;3.05;;;1.13;;
72621;SDS011;60665;53.506;9.582;2022-09-02T15:46:52;1.77;;;0.90;;
72621;SDS011;60665;53.506;9.582;2022-09-02T15:49:18;5.90;;;1.30;;
72621;SDS011;60665;53.506;9.582;2022-09-02T15:51:44;2.90;;;0.90;;
72621;SDS011;60665;53.506;9.582;2022-09-02T15:54:11;2.33;;;1.00;;
72621;SDS011;60665;53.506;9.582;2022-09-02T15:56:38;3.35;;;0.90;;
72621;SDS011;60665;53.506;9.582;2022-09-02T15:59:06;3.60;;;0.80;;
72621;SDS011;60665;53.506;9.582;2022-09-02T16:06:25;3.47;;;1.10;;
72621;SDS011;60665;53.506;9.582;2022-09-02T16:08:51;4.90;;;0.85;;
72621;SDS011;60665;53.506;9.582;2022-09-02T16:11:16;2.83;;;1.02;;
72621;SDS011;60665;53.506;9.582;2022-09-02T16:13:42;2.40;;;0.73;;
72621;SDS011;60665;53.506;9.582;2022-09-02T16:16:09;2.58;;;0.90;;
72621;SDS011;60665;53.506;9.582;2022-09-02T16:18:35;4.93;;;1.10;;
72621;SDS011;60665;53.506;9.582;2022-09-02T16:21:02;3.72;;;1.02;;
72621;SDS011;60665;53.506;9.582;2022-09-02T16:23:29;4.35;;;0.90;;
72621;SDS011;60665;53.506;9.582;2022-09-02T16:28:58;2.42;;;1.00;;
72621;SDS011;60665;53.506;9.582;2022-09-02T16:31:25;4.28;;;1.00;;
72621;SDS011;60665;53.506;9.582;2022-09-02T16:33:56;3.17;;;0.70;;
72621;SDS011;60665;53.506;9.582;2022-09-02T16:36:26;2.42;;;1.00;;
72621;SDS011;60665;53.506;9.582;2022-09-02T16:38:52;8.32;;;1.30;;
72621;SDS011;60665;53.506;9.582;2022-09-02T16:41:24;4.15;;;1.02;;
72621;SDS011;60665;53.506;9.582;2022-09-02T16:43:53;3.70;;;0.88;;
72621;SDS011;60665;53.506;9.582;2022-09-02T16:46:20;6.50;;;1.23;;
72621;SDS011;60665;53.506;9.582;2022-09-02T16:48:46;5.07;;;1.00;;
72621;SDS011;60665;53.506;9.582;2022-09-02T16:51:11;6.50;;;0.80;;
72621;SDS011;60665;53.506;9.582;2022-09-02T16:53:37;4.13;;;0.80;;
72621;SDS011;60665;53.506;9.582;2022-09-02T16:56:02;4.53;;;0.80;;
72621;SDS011;60665;53.506;9.582;2022-09-02T16:58:28;5.20;;;1.10;;
72621;SDS011;60665;53.506;9.582;2022-09-02T17:00:54;4.15;;;0.90;;
72621;SDS011;60665;53.506;9.582;2022-09-02T17:03:20;6.25;;;0.80;;
72621;SDS011;60665;53.506;9.582;2022-09-02T17:05:45;4.20;;;1.23;;
72621;SDS011;60665;53.506;9.582;2022-09-02T17:08:13;1.92;;;0.70;;
72621;SDS011;60665;53.506;9.582;2022-09-02T17:10:39;3.20;;;0.80;;
72621;SDS011;60665;53.506;9.582;2022-09-02T17:13:05;3.03;;;0.77;;
72621;SDS011;60665;53.506;9.582;2022-09-02T17:15:30;3.20;;;1.00;;
72621;SDS011;60665;53.506;9.582;2022-09-02T17:17:55;4.35;;;0.90;;
72621;SDS011;60665;53.506;9.582;2022-09-02T17:20:21;3.75;;;0.55;;
72621;SDS011;60665;53.506;9.582;2022-09-02T17:22:47;4.82;;;1.00;;